createdAt,value
2022-07-25T00:02:21.028Z,23.80
2022-07-25T00:04:52.406Z,23.80
2022-07-25T00:07:23.176Z,23.80
2022-07-25T00:09:53.844Z,23.80
2022-07-25T00:12:24.878Z,23.70
2022-07-25T00:14:55.638Z,23.70
2022-07-25T00:17:26.265Z,23.70
2022-07-25T00:19:56.854Z,23.80
2022-07-25T00:22:27.594Z,23.80
2022-07-25T00:24:58.235Z,23.90
2022-07-25T00:27:28.976Z,23.80
2022-07-25T00:29:59.625Z,23.70
2022-07-25T00:32:30.233Z,23.60
2022-07-25T00:35:00.867Z,23.50
2022-07-25T00:37:31.643Z,23.40
2022-07-25T00:40:02.245Z,23.40
2022-07-25T00:42:33.764Z,23.30
2022-07-25T00:45:04.739Z,23.30
2022-07-25T00:47:35.341Z,23.30
2022-07-25T00:50:07.054Z,23.30
2022-07-25T00:52:39.231Z,23.20
2022-07-25T00:55:11.410Z,23.20
2022-07-25T00:57:41.989Z,23.00
2022-07-25T01:00:17.147Z,23.00
2022-07-25T01:02:48.570Z,23.00
2022-07-25T01:05:21.141Z,22.90
2022-07-25T01:08:10.696Z,22.80
2022-07-25T01:10:41.829Z,22.80
2022-07-25T01:13:12.756Z,22.80
2022-07-25T01:15:43.836Z,22.60
2022-07-25T01:18:14.442Z,22.50
2022-07-25T01:20:45.460Z,22.40
2022-07-25T01:23:16.128Z,22.00
2022-07-25T01:25:46.788Z,21.80
2022-07-25T01:28:18.430Z,21.50
2022-07-25T01:30:49.401Z,21.30
2022-07-25T01:33:20.720Z,21.40
2022-07-25T01:35:52.545Z,21.60
2022-07-25T01:38:23.271Z,21.90
2022-07-25T01:40:53.863Z,22.10
2022-07-25T01:43:24.518Z,22.20
2022-07-25T01:45:55.294Z,22.20
2022-07-25T01:48:26.114Z,22.20
2022-07-25T01:50:56.776Z,22.30
2022-07-25T01:53:27.840Z,22.30
2022-07-25T01:55:58.477Z,22.20
2022-07-25T01:58:29.077Z,22.00
2022-07-25T02:00:59.910Z,21.70
2022-07-25T02:03:31.140Z,21.50
2022-07-25T02:06:03.430Z,21.60
2022-07-25T02:08:34.663Z,21.40
2022-07-25T02:11:05.305Z,21.50
2022-07-25T02:13:35.973Z,21.60
2022-07-25T02:16:07.284Z,21.80
2022-07-25T02:18:38.041Z,21.70
2022-07-25T02:21:14.212Z,21.60
2022-07-25T02:23:42.556Z,21.50
2022-07-25T02:26:13.602Z,21.50
2022-07-25T02:28:44.398Z,21.30
2022-07-25T02:31:15.328Z,21.30
2022-07-25T02:33:46.681Z,21.20
2022-07-25T02:36:17.287Z,21.00
2022-07-25T02:38:47.995Z,20.80
2022-07-25T02:41:18.737Z,20.70
2022-07-25T02:43:49.354Z,20.70
2022-07-25T02:46:20.010Z,20.70
2022-07-25T02:48:50.881Z,20.80
2022-07-25T02:51:21.598Z,20.90
2022-07-25T02:53:57.880Z,20.90
2022-07-25T02:56:24.570Z,21.00
2022-07-25T02:58:55.291Z,21.10
2022-07-25T03:01:26.559Z,21.10
2022-07-25T03:03:57.541Z,21.00
2022-07-25T03:06:28.316Z,21.00
2022-07-25T03:08:58.989Z,20.90
2022-07-25T03:11:29.724Z,20.90
2022-07-25T03:14:00.416Z,20.80
2022-07-25T03:16:31.185Z,20.70
2022-07-25T03:19:01.878Z,20.60
2022-07-25T03:21:32.579Z,20.50
2022-07-25T03:24:03.167Z,20.40
2022-07-25T03:26:33.820Z,20.40
2022-07-25T03:29:04.506Z,20.40
2022-07-25T03:31:35.489Z,20.30
2022-07-25T03:34:06.407Z,20.10
2022-07-25T03:36:37.182Z,19.90
2022-07-25T03:39:07.832Z,19.90
2022-07-25T03:41:38.605Z,19.80
2022-07-25T03:44:09.950Z,19.80
2022-07-25T03:46:40.970Z,19.90
2022-07-25T03:49:11.897Z,20.00
2022-07-25T03:51:42.898Z,20.10
2022-07-25T03:54:14.364Z,20.20
2022-07-25T03:56:46.830Z,20.20
2022-07-25T03:59:19.157Z,19.90
2022-07-25T04:01:51.351Z,19.90
2022-07-25T04:04:22.115Z,19.90
2022-07-25T04:06:52.852Z,19.90
2022-07-25T04:09:23.427Z,19.90
2022-07-25T04:11:54.119Z,20.00
2022-07-25T04:14:25.090Z,20.20
2022-07-25T04:16:55.914Z,20.40
2022-07-25T04:19:28.828Z,20.50
2022-07-25T04:21:58.929Z,20.30
2022-07-25T04:24:29.566Z,19.80
2022-07-25T04:27:00.190Z,19.50
2022-07-25T04:29:30.771Z,19.30
2022-07-25T04:32:01.663Z,19.20
2022-07-25T04:34:32.545Z,19.20
2022-07-25T04:37:03.136Z,19.30
2022-07-25T04:39:33.853Z,19.30
2022-07-25T04:42:04.516Z,19.40
2022-07-25T04:44:35.120Z,19.50
2022-07-25T04:47:06.371Z,19.70
2022-07-25T04:49:37.102Z,19.90
2022-07-25T04:52:08.177Z,20.00
2022-07-25T04:54:38.817Z,19.70
2022-07-25T04:57:09.518Z,19.80
2022-07-25T04:59:40.247Z,19.80
2022-07-25T05:02:10.931Z,19.90
2022-07-25T05:04:45.344Z,20.00
2022-07-25T05:07:13.904Z,20.00
2022-07-25T05:09:44.617Z,20.00
2022-07-25T05:12:15.441Z,20.00
2022-07-25T05:14:46.319Z,20.10
2022-07-25T05:17:16.970Z,20.10
2022-07-25T05:19:47.671Z,20.20
2022-07-25T05:22:18.403Z,20.20
2022-07-25T05:24:49.071Z,20.30
2022-07-25T05:27:19.793Z,20.40
2022-07-25T05:29:50.382Z,20.60
2022-07-25T05:32:21.006Z,20.50
2022-07-25T05:34:52.475Z,20.70
2022-07-25T05:37:23.094Z,20.90
2022-07-25T05:39:53.722Z,21.00
2022-07-25T05:42:24.355Z,21.10
2022-07-25T05:44:55.100Z,21.10
2022-07-25T05:47:25.703Z,21.20
2022-07-25T05:49:56.515Z,21.50
2022-07-25T05:52:27.187Z,21.60
2022-07-25T05:54:57.840Z,21.90
2022-07-25T05:57:28.528Z,22.10
2022-07-25T05:59:59.197Z,22.00
2022-07-25T06:02:29.882Z,22.10
2022-07-25T06:05:01.653Z,22.40
2022-07-25T06:07:32.319Z,22.60
2022-07-25T06:10:03.552Z,22.80
2022-07-25T06:12:36.736Z,22.90
2022-07-25T06:15:12.446Z,23.10
2022-07-25T06:17:44.895Z,23.20
2022-07-25T06:20:15.613Z,23.40
2022-07-25T06:22:46.260Z,23.60
2022-07-25T06:25:17.016Z,23.90
2022-07-25T06:27:47.855Z,24.00
2022-07-25T06:30:20.548Z,24.20
2022-07-25T06:32:51.585Z,24.30
2022-07-25T06:35:23.030Z,24.60
2022-07-25T06:37:53.718Z,24.70
2022-07-25T06:40:24.459Z,24.90
2022-07-25T06:42:55.204Z,25.20
2022-07-25T06:45:25.955Z,25.20
2022-07-25T06:47:56.548Z,25.20
2022-07-25T06:50:27.478Z,25.20
2022-07-25T06:52:58.554Z,25.00
2022-07-25T06:55:29.165Z,25.20
2022-07-25T06:57:59.790Z,25.20
2022-07-25T07:00:30.711Z,25.30
2022-07-25T07:03:03.238Z,25.40
2022-07-25T07:05:36.524Z,25.50
2022-07-25T07:08:07.799Z,25.60
2022-07-25T07:10:39.955Z,25.70
2022-07-25T07:13:13.854Z,25.50
2022-07-25T07:15:51.057Z,25.30
2022-07-25T07:18:22.311Z,25.30
2022-07-25T07:20:53.183Z,25.50
2022-07-25T07:23:24.665Z,25.70
2022-07-25T07:25:55.461Z,25.90
2022-07-25T07:28:26.198Z,26.10
2022-07-25T07:31:15.690Z,26.20
2022-07-25T07:33:47.797Z,26.30
2022-07-25T07:36:19.044Z,26.30
2022-07-25T07:38:49.723Z,26.30
2022-07-25T07:41:21.021Z,26.40
2022-07-25T07:43:51.938Z,26.30
2022-07-25T07:46:22.639Z,26.50
2022-07-25T07:48:53.370Z,26.60
2022-07-25T07:51:24.152Z,26.60
2022-07-25T07:54:12.353Z,26.80
2022-07-25T07:56:43.324Z,26.90
2022-07-25T07:59:13.945Z,27.10
2022-07-25T08:01:44.726Z,27.30
2022-07-25T08:04:15.833Z,27.60
2022-07-25T08:06:46.469Z,27.70
2022-07-25T08:09:17.068Z,27.90
2022-07-25T08:11:47.838Z,28.00
2022-07-25T08:14:18.431Z,28.10
2022-07-25T08:16:49.066Z,28.10
2022-07-25T08:19:20.458Z,28.20
2022-07-25T08:21:51.180Z,28.50
2022-07-25T08:24:21.895Z,28.50
2022-07-25T08:26:53.568Z,28.60
2022-07-25T08:29:28.274Z,28.80
2022-07-25T08:31:56.648Z,28.70
2022-07-25T08:34:27.471Z,28.90
2022-07-25T08:36:58.491Z,28.80
2022-07-25T08:39:29.085Z,28.70
2022-07-25T08:42:01.050Z,28.60
2022-07-25T08:44:34.708Z,28.80
2022-07-25T08:47:05.742Z,29.10
2022-07-25T08:49:38.098Z,29.40
2022-07-25T08:52:10.792Z,29.40
2022-07-25T08:54:42.134Z,29.50
2022-07-25T08:57:12.796Z,29.50
2022-07-25T08:59:43.612Z,29.60
2022-07-25T09:02:17.110Z,29.90
2022-07-25T09:04:48.014Z,30.10
2022-07-25T09:07:18.680Z,30.10
2022-07-25T09:09:49.437Z,30.00
2022-07-25T09:12:26.174Z,30.30
2022-07-25T09:14:58.178Z,30.40
2022-07-25T09:17:28.844Z,30.30
2022-07-25T09:20:00.490Z,30.60
2022-07-25T09:22:31.305Z,30.70
2022-07-25T09:25:01.968Z,30.70
2022-07-25T09:27:35.390Z,30.80
2022-07-25T09:30:14.885Z,31.10
2022-07-25T09:32:45.889Z,30.70
2022-07-25T09:35:16.974Z,30.90
2022-07-25T09:37:47.618Z,31.30
2022-07-25T09:40:19.905Z,31.30
2022-07-25T09:42:53.684Z,31.10
2022-07-25T09:45:28.265Z,31.30
2022-07-25T09:47:58.343Z,31.60
2022-07-25T09:50:31.822Z,31.00
2022-07-25T09:53:04.120Z,31.30
2022-07-25T09:55:35.063Z,31.80
2022-07-25T09:58:05.951Z,32.00
2022-07-25T10:00:37.579Z,32.40
2022-07-25T10:03:30.401Z,32.40
2022-07-25T10:06:11.912Z,32.30
2022-07-25T10:08:43.515Z,32.50
2022-07-25T10:11:25.838Z,32.80
2022-07-25T10:13:57.574Z,33.00
2022-07-25T10:16:28.886Z,32.90
2022-07-25T10:19:00.974Z,33.00
2022-07-25T10:21:32.699Z,33.30
2022-07-25T10:24:06.198Z,33.30
2022-07-25T10:26:40.063Z,33.20
2022-07-25T10:29:13.190Z,33.50
2022-07-25T10:31:50.467Z,33.50
2022-07-25T10:34:18.265Z,33.40
2022-07-25T10:36:51.318Z,33.70
2022-07-25T10:39:23.141Z,33.60
2022-07-25T10:41:56.018Z,33.90
2022-07-25T10:44:29.815Z,34.00
2022-07-25T10:47:10.408Z,33.60
2022-07-25T10:50:06.812Z,33.50
2022-07-25T10:52:19.046Z,34.00
2022-07-25T10:54:58.109Z,33.70
2022-07-25T10:57:32.184Z,34.10
2022-07-25T11:00:09.945Z,34.20
2022-07-25T11:02:41.452Z,34.80
2022-07-25T11:05:12.772Z,34.50
2022-07-25T11:08:18.954Z,34.40
2022-07-25T11:10:29.366Z,34.80
2022-07-25T11:13:00.023Z,35.10
2022-07-25T11:15:31.299Z,34.50
2022-07-25T11:18:01.897Z,34.70
2022-07-25T11:20:32.535Z,34.90
2022-07-25T11:23:03.256Z,34.40
2022-07-25T11:25:34.231Z,34.70
2022-07-25T11:28:05.136Z,35.00
2022-07-25T11:30:35.765Z,35.60
2022-07-25T11:33:07.513Z,34.90
2022-07-25T11:35:38.848Z,35.40
2022-07-25T11:38:11.019Z,35.60
2022-07-25T11:40:46.811Z,35.80
2022-07-25T11:43:24.333Z,35.80
2022-07-25T11:46:03.828Z,36.20
2022-07-25T11:48:37.680Z,35.80
2022-07-25T11:51:18.347Z,35.90
2022-07-25T11:53:49.916Z,35.80
2022-07-25T11:56:41.926Z,35.30
2022-07-25T11:59:01.445Z,35.00
2022-07-25T12:01:38.273Z,34.50
2022-07-25T12:04:14.428Z,34.20
2022-07-25T12:06:46.432Z,34.10
2022-07-25T12:09:35.747Z,34.10
2022-07-25T12:12:07.801Z,34.10
2022-07-25T12:14:46.007Z,34.90
2022-07-25T12:17:16.952Z,36.00
2022-07-25T12:19:49.008Z,36.40
2022-07-25T12:22:19.706Z,36.60
2022-07-25T12:24:50.573Z,36.20
2022-07-25T12:27:21.209Z,35.30
2022-07-25T12:29:51.854Z,35.10
2022-07-25T12:32:22.532Z,34.80
2022-07-25T12:34:53.157Z,34.70
2022-07-25T12:37:23.880Z,34.50
2022-07-25T12:39:54.505Z,34.50
2022-07-25T12:42:25.306Z,34.40
2022-07-25T12:44:56.365Z,34.40
2022-07-25T12:47:29.074Z,34.00
2022-07-25T12:49:59.820Z,34.00
2022-07-25T12:52:30.574Z,33.80
2022-07-25T12:55:01.335Z,33.80
2022-07-25T12:57:31.947Z,33.70
2022-07-25T13:00:02.521Z,33.60
2022-07-25T13:02:33.268Z,33.60
2022-07-25T13:05:04.780Z,33.50
2022-07-25T13:07:36.399Z,33.60
2022-07-25T13:10:09.761Z,33.40
2022-07-25T13:12:40.492Z,33.30
2022-07-25T13:15:12.221Z,33.20
2022-07-25T13:17:43.121Z,33.10
2022-07-25T13:20:15.846Z,33.00
2022-07-25T13:22:46.649Z,32.90
2022-07-25T13:25:17.462Z,33.10
2022-07-25T13:27:50.226Z,33.20
2022-07-25T13:30:22.150Z,33.20
2022-07-25T13:32:52.838Z,33.20
2022-07-25T13:35:31.537Z,33.00
2022-07-25T13:37:55.893Z,32.90
2022-07-25T13:40:26.806Z,32.90
2022-07-25T13:42:58.791Z,32.60
2022-07-25T13:45:29.632Z,32.00
2022-07-25T13:48:27.899Z,31.80
2022-07-25T13:50:32.917Z,31.50
2022-07-25T13:53:05.380Z,31.30
2022-07-25T13:55:36.055Z,31.20
2022-07-25T13:58:07.349Z,30.80
2022-07-25T14:00:37.923Z,30.30
2022-07-25T14:03:08.765Z,29.60
2022-07-25T14:05:41.257Z,28.90
2022-07-25T14:08:11.887Z,28.40
2022-07-25T14:10:42.577Z,28.20
2022-07-25T14:13:13.818Z,28.10
2022-07-25T14:15:45.101Z,28.20
2022-07-25T14:18:16.146Z,27.90
2022-07-25T14:20:47.735Z,28.20
2022-07-25T14:23:18.467Z,28.50
2022-07-25T14:25:49.078Z,28.80
2022-07-25T14:28:19.943Z,29.10
2022-07-25T14:30:50.838Z,29.20
2022-07-25T14:33:21.667Z,29.10
2022-07-25T14:35:53.040Z,29.00
2022-07-25T14:38:23.649Z,28.90
2022-07-25T14:40:55.511Z,29.00
2022-07-25T14:43:26.290Z,29.00
2022-07-25T14:45:57.028Z,28.90
2022-07-25T14:48:27.793Z,28.80
2022-07-25T14:50:58.444Z,28.70
2022-07-25T14:53:29.136Z,28.60
2022-07-25T14:56:01.043Z,28.60
2022-07-25T14:58:32.585Z,28.70
2022-07-25T15:01:03.657Z,28.70
2022-07-25T15:03:34.417Z,28.70
2022-07-25T15:06:06.837Z,28.60
2022-07-25T15:08:39.885Z,28.50
2022-07-25T15:11:10.648Z,28.30
2022-07-25T15:13:41.465Z,28.00
2022-07-25T15:16:14.117Z,27.80
2022-07-25T15:19:13.288Z,27.60
2022-07-25T15:21:17.636Z,27.60
2022-07-25T15:23:48.299Z,27.80
2022-07-25T15:26:19.407Z,27.60
2022-07-25T15:28:50.099Z,27.60
2022-07-25T15:31:23.707Z,27.40
2022-07-25T15:33:54.782Z,27.30
2022-07-25T15:36:29.371Z,27.20
2022-07-25T15:38:58.126Z,27.10
2022-07-25T15:41:28.766Z,27.00
2022-07-25T15:44:00.005Z,27.30
2022-07-25T15:46:30.702Z,27.50
2022-07-25T15:49:01.537Z,27.60
2022-07-25T15:51:33.535Z,27.90
2022-07-25T15:54:04.138Z,28.30
2022-07-25T15:56:35.411Z,29.50
2022-07-25T15:59:06.386Z,30.80
2022-07-25T16:01:37.311Z,31.90
2022-07-25T16:04:08.499Z,33.00
2022-07-25T16:06:40.280Z,33.70
2022-07-25T16:09:12.588Z,34.30
2022-07-25T16:11:43.215Z,34.50
2022-07-25T16:14:14.155Z,34.40
2022-07-25T16:16:45.042Z,33.80
2022-07-25T16:19:15.748Z,33.50
2022-07-25T16:21:46.608Z,33.10
2022-07-25T16:24:17.298Z,32.80
2022-07-25T16:26:49.300Z,32.90
2022-07-25T16:29:19.952Z,33.60
2022-07-25T16:31:50.677Z,33.80
2022-07-25T16:34:23.607Z,33.30
2022-07-25T16:36:54.395Z,32.50
2022-07-25T16:39:25.084Z,32.30
2022-07-25T16:41:56.746Z,31.50
2022-07-25T16:44:28.243Z,30.30
2022-07-25T16:46:58.903Z,30.10
2022-07-25T16:49:29.537Z,29.80
2022-07-25T16:52:00.285Z,29.80
2022-07-25T16:54:30.878Z,29.90
2022-07-25T16:57:01.957Z,29.80
2022-07-25T16:59:32.677Z,29.70
2022-07-25T17:02:03.971Z,29.70
2022-07-25T17:04:34.757Z,29.60
2022-07-25T17:07:05.484Z,29.50
2022-07-25T17:09:36.151Z,29.40
2022-07-25T17:12:08.359Z,29.30
2022-07-25T17:14:39.015Z,29.30
2022-07-25T17:17:09.674Z,29.20
2022-07-25T17:19:40.505Z,29.00
2022-07-25T17:22:11.722Z,29.00
2022-07-25T17:24:42.903Z,28.90
2022-07-25T17:27:13.724Z,28.80
2022-07-25T17:29:44.460Z,28.90
2022-07-25T17:32:15.257Z,28.90
2022-07-25T17:34:47.275Z,28.80
2022-07-25T17:37:18.507Z,28.70
2022-07-25T17:39:49.619Z,28.70
2022-07-25T17:42:22.633Z,28.60
2022-07-25T17:44:53.793Z,28.60
2022-07-25T17:47:25.133Z,28.60
2022-07-25T17:49:55.739Z,28.50
2022-07-25T17:52:26.442Z,28.40
2022-07-25T17:54:58.586Z,28.30
2022-07-25T17:57:29.396Z,28.20
2022-07-25T17:59:59.980Z,28.20
2022-07-25T18:02:30.927Z,28.10
2022-07-25T18:05:01.572Z,28.10
2022-07-25T18:07:32.245Z,28.10
2022-07-25T18:10:03.981Z,28.00
2022-07-25T18:12:34.755Z,27.90
2022-07-25T18:15:06.502Z,27.60
2022-07-25T18:17:37.240Z,27.00
2022-07-25T18:20:10.193Z,26.70
2022-07-25T18:22:42.004Z,26.30
2022-07-25T18:25:14.892Z,26.20
2022-07-25T18:27:46.574Z,26.20
2022-07-25T18:30:17.942Z,26.20
2022-07-25T18:32:48.687Z,26.10
2022-07-25T18:35:19.461Z,26.00
2022-07-25T18:37:50.199Z,25.90
2022-07-25T18:40:21.038Z,25.90
2022-07-25T18:42:51.671Z,25.70
2022-07-25T18:45:22.910Z,26.00
2022-07-25T18:47:55.211Z,26.30
2022-07-25T18:50:26.104Z,26.20
2022-07-25T18:52:57.383Z,26.00
2022-07-25T18:55:28.176Z,25.70
2022-07-25T18:57:58.988Z,26.20
2022-07-25T19:00:29.951Z,26.30
2022-07-25T19:03:00.615Z,26.60
2022-07-25T19:05:31.235Z,26.50
2022-07-25T19:08:03.761Z,26.50
2022-07-25T19:10:34.458Z,26.30
2022-07-25T19:13:06.459Z,26.50
2022-07-25T19:15:38.399Z,26.70
2022-07-25T19:18:09.409Z,26.90
2022-07-25T19:20:41.765Z,27.00
2022-07-25T19:23:12.401Z,26.90
2022-07-25T19:25:43.073Z,26.70
2022-07-25T19:28:13.848Z,25.80
2022-07-25T19:30:44.599Z,23.70
2022-07-25T19:33:15.644Z,22.90
2022-07-25T19:35:46.254Z,22.50
2022-07-25T19:38:16.934Z,22.30
2022-07-25T19:40:47.782Z,22.60
2022-07-25T19:43:18.643Z,22.30
2022-07-25T19:45:49.476Z,22.10
2022-07-25T19:48:21.725Z,21.80
2022-07-25T19:50:52.356Z,21.80
2022-07-25T19:53:26.800Z,21.80
2022-07-25T19:55:55.354Z,21.20
2022-07-25T19:58:26.096Z,21.30
2022-07-25T20:00:56.750Z,21.30
2022-07-25T20:03:27.487Z,21.30
2022-07-25T20:05:58.127Z,21.30
2022-07-25T20:08:28.749Z,21.20
2022-07-25T20:10:59.644Z,21.30
2022-07-25T20:13:30.748Z,21.30
2022-07-25T20:16:02.356Z,21.20
2022-07-25T20:18:33.433Z,21.30
2022-07-25T20:21:04.096Z,21.20
2022-07-25T20:23:34.766Z,21.30
2022-07-25T20:26:05.840Z,21.20
2022-07-25T20:28:38.223Z,21.00
2022-07-25T20:31:09.413Z,21.00
2022-07-25T20:33:40.194Z,20.90
2022-07-25T20:36:11.583Z,20.80
2022-07-25T20:38:42.245Z,20.70
2022-07-25T20:41:14.609Z,20.70
2022-07-25T20:43:45.370Z,20.60
2022-07-25T20:46:16.070Z,20.60
2022-07-25T20:48:46.807Z,20.50
2022-07-25T20:51:17.578Z,20.30
2022-07-25T20:53:51.638Z,20.30
2022-07-25T20:56:20.768Z,20.50
2022-07-25T20:58:52.175Z,20.40
2022-07-25T21:01:23.078Z,20.30
2022-07-25T21:03:53.753Z,20.30
2022-07-25T21:06:27.261Z,20.40
2022-07-25T21:08:57.131Z,20.40
2022-07-25T21:11:27.872Z,20.30
2022-07-25T21:13:58.565Z,20.50
2022-07-25T21:16:29.408Z,20.40
2022-07-25T21:19:00.118Z,20.40
2022-07-25T21:21:30.823Z,20.50
2022-07-25T21:24:02.436Z,20.40
2022-07-25T21:26:33.295Z,20.50
2022-07-25T21:29:04.040Z,20.50
2022-07-25T21:31:35.723Z,20.80
2022-07-25T21:34:06.454Z,21.10
2022-07-25T21:36:37.246Z,21.20
2022-07-25T21:39:08.140Z,21.00
2022-07-25T21:41:39.062Z,21.30
2022-07-25T21:44:09.692Z,21.30
2022-07-25T21:46:40.325Z,21.10
2022-07-25T21:49:41.265Z,21.20
2022-07-25T21:52:03.850Z,20.90
2022-07-25T21:54:36.194Z,20.90
2022-07-25T21:57:07.145Z,21.00
2022-07-25T21:59:39.602Z,21.10
2022-07-25T22:02:10.615Z,21.10
2022-07-25T22:04:41.322Z,21.00
2022-07-25T22:07:11.912Z,21.10
2022-07-25T22:09:43.549Z,21.20
2022-07-25T22:12:14.220Z,21.10
2022-07-25T22:14:44.833Z,21.00
2022-07-25T22:17:16.167Z,21.10
2022-07-25T22:19:46.895Z,21.30
2022-07-25T22:22:17.961Z,21.60
2022-07-25T22:24:48.772Z,21.40
2022-07-25T22:27:19.745Z,21.70
2022-07-25T22:29:50.441Z,22.00
2022-07-25T22:32:21.081Z,22.20
2022-07-25T22:34:51.763Z,22.30
2022-07-25T22:37:22.390Z,22.20
2022-07-25T22:39:56.495Z,22.30
2022-07-25T22:42:25.469Z,22.20
2022-07-25T22:44:56.054Z,22.00
2022-07-25T22:47:26.657Z,21.90
2022-07-25T22:49:57.274Z,22.00
2022-07-25T22:52:27.974Z,22.00
2022-07-25T22:54:58.603Z,22.00
2022-07-25T22:57:29.250Z,22.00
2022-07-25T22:59:59.859Z,22.00
2022-07-25T23:02:30.592Z,22.00
2022-07-25T23:05:01.275Z,22.20
2022-07-25T23:07:31.868Z,22.10
2022-07-25T23:10:03.032Z,22.00
2022-07-25T23:12:33.850Z,21.90
2022-07-25T23:15:04.805Z,22.20
2022-07-25T23:17:35.611Z,22.40
2022-07-25T23:20:08.798Z,22.10
2022-07-25T23:22:39.456Z,22.00
2022-07-25T23:25:12.294Z,21.60
2022-07-25T23:27:43.065Z,21.60
2022-07-25T23:30:16.658Z,21.20
2022-07-25T23:32:47.416Z,21.30
2022-07-25T23:35:18.002Z,21.20
2022-07-25T23:37:48.817Z,21.30
2022-07-25T23:40:19.514Z,21.60
2022-07-25T23:42:50.102Z,21.80
2022-07-25T23:45:21.307Z,22.10
2022-07-25T23:47:51.943Z,21.80
2022-07-25T23:50:24.237Z,22.00
2022-07-25T23:52:54.946Z,22.10
2022-07-25T23:55:25.642Z,22.30
2022-07-25T23:57:56.363Z,22.10
